sensor_id;sensor_type;location;lat;lon;timestamp;temperature;humidity
22436;DHT22;11385;50.822;4.324;2023-04-15T00:02:16;11.60;99.90
22436;DHT22;11385;50.822;4.324;2023-04-15T00:04:45;11.70;99.90
22436;DHT22;11385;50.822;4.324;2023-04-15T00:07:13;11.60;99.90
22436;DHT22;11385;50.822;4.324;2023-04-15T00:09:41;11.60;99.90
22436;DHT22;11385;50.822;4.324;2023-04-15T00:12:08;11.60;99.90
22436;DHT22;11385;50.822;4.324;2023-04-15T00:14:35;11.50;99.90
22436;DHT22;11385;50.822;4.324;2023-04-15T00:17:03;11.60;99.90
22436;DHT22;11385;50.822;4.324;2023-04-15T00:19:31;11.50;99.90
22436;DHT22;11385;50.822;4.324;2023-04-15T00:21:59;11.70;99.90
22436;DHT22;11385;50.822;4.324;2023-04-15T00:24:26;11.50;99.90
22436;DHT22;11385;50.822;4.324;2023-04-15T00:26:55;11.40;99.90
22436;DHT22;11385;50.822;4.324;2023-04-15T00:29:23;11.40;99.90
22436;DHT22;11385;50.822;4.324;2023-04-15T00:31:50;11.30;99.90
22436;DHT22;11385;50.822;4.324;2023-04-15T00:34:17;11.30;99.90
22436;DHT22;11385;50.822;4.324;2023-04-15T00:36:44;11.20;99.90
22436;DHT22;11385;50.822;4.324;2023-04-15T00:39:12;11.20;99.90
22436;DHT22;11385;50.822;4.324;2023-04-15T00:41:39;11.10;99.90
22436;DHT22;11385;50.822;4.324;2023-04-15T00:44:06;10.80;99.90
22436;DHT22;11385;50.822;4.324;2023-04-15T00:46:35;10.70;99.90
22436;DHT22;11385;50.822;4.324;2023-04-15T00:49:04;10.80;99.90
22436;DHT22;11385;50.822;4.324;2023-04-15T00:51:32;10.80;99.90
22436;DHT22;11385;50.822;4.324;2023-04-15T00:54:02;10.80;99.90
22436;DHT22;11385;50.822;4.324;2023-04-15T00:56:32;11.20;99.90
22436;DHT22;11385;50.822;4.324;2023-04-15T00:59:00;11.10;99.90
22436;DHT22;11385;50.822;4.324;2023-04-15T01:01:28;10.90;99.90
22436;DHT22;11385;50.822;4.324;2023-04-15T01:03:57;10.90;99.90
22436;DHT22;11385;50.822;4.324;2023-04-15T01:06:24;11.10;99.90
22436;DHT22;11385;50.822;4.324;2023-04-15T01:08:55;11.00;99.90
22436;DHT22;11385;50.822;4.324;2023-04-15T01:11:25;10.90;99.90
22436;DHT22;11385;50.822;4.324;2023-04-15T01:13:54;10.90;99.90
22436;DHT22;11385;50.822;4.324;2023-04-15T01:16:22;10.90;99.90
22436;DHT22;11385;50.822;4.324;2023-04-15T01:18:50;11.00;99.90
22436;DHT22;11385;50.822;4.324;2023-04-15T01:21:18;11.10;99.90
22436;DHT22;11385;50.822;4.324;2023-04-15T01:23:47;11.20;99.90
22436;DHT22;11385;50.822;4.324;2023-04-15T01:26:19;11.30;99.90
22436;DHT22;11385;50.822;4.324;2023-04-15T01:28:47;11.10;99.90
22436;DHT22;11385;50.822;4.324;2023-04-15T01:31:15;10.90;99.90
22436;DHT22;11385;50.822;4.324;2023-04-15T01:33:42;10.90;99.90
22436;DHT22;11385;50.822;4.324;2023-04-15T01:36:09;10.80;99.90
22436;DHT22;11385;50.822;4.324;2023-04-15T01:38:37;10.80;99.90
22436;DHT22;11385;50.822;4.324;2023-04-15T01:41:04;10.80;99.90
22436;DHT22;11385;50.822;4.324;2023-04-15T01:43:34;10.70;99.90
22436;DHT22;11385;50.822;4.324;2023-04-15T01:46:02;10.70;99.90
22436;DHT22;11385;50.822;4.324;2023-04-15T01:48:29;10.60;99.90
22436;DHT22;11385;50.822;4.324;2023-04-15T01:50:58;10.50;99.90
22436;DHT22;11385;50.822;4.324;2023-04-15T01:53:25;10.50;99.90
22436;DHT22;11385;50.822;4.324;2023-04-15T01:55:52;10.50;99.90
22436;DHT22;11385;50.822;4.324;2023-04-15T01:58:19;10.40;99.90
22436;DHT22;11385;50.822;4.324;2023-04-15T02:00:47;10.40;99.90
22436;DHT22;11385;50.822;4.324;2023-04-15T02:03:14;10.40;99.90
22436;DHT22;11385;50.822;4.324;2023-04-15T02:05:41;10.40;99.90
22436;DHT22;11385;50.822;4.324;2023-04-15T02:08:08;10.10;99.90
22436;DHT22;11385;50.822;4.324;2023-04-15T02:10:35;10.10;99.90
22436;DHT22;11385;50.822;4.324;2023-04-15T02:13:01;10.10;99.90
22436;DHT22;11385;50.822;4.324;2023-04-15T02:15:28;10.20;99.90
22436;DHT22;11385;50.822;4.324;2023-04-15T02:17:56;10.30;99.90
22436;DHT22;11385;50.822;4.324;2023-04-15T02:20:23;10.40;99.90
22436;DHT22;11385;50.822;4.324;2023-04-15T02:22:49;10.50;99.90
22436;DHT22;11385;50.822;4.324;2023-04-15T02:25:17;10.50;99.90
22436;DHT22;11385;50.822;4.324;2023-04-15T02:27:44;10.50;99.90
22436;DHT22;11385;50.822;4.324;2023-04-15T02:30:11;10.40;99.90
22436;DHT22;11385;50.822;4.324;2023-04-15T02:32:37;10.30;99.90
22436;DHT22;11385;50.822;4.324;2023-04-15T02:35:05;10.40;99.90
22436;DHT22;11385;50.822;4.324;2023-04-15T02:37:36;10.60;99.90
22436;DHT22;11385;50.822;4.324;2023-04-15T02:40:08;10.50;99.90
22436;DHT22;11385;50.822;4.324;2023-04-15T02:42:38;10.40;99.90
22436;DHT22;11385;50.822;4.324;2023-04-15T02:45:06;10.40;99.90
22436;DHT22;11385;50.822;4.324;2023-04-15T02:47:34;10.30;99.90
22436;DHT22;11385;50.822;4.324;2023-04-15T02:50:03;10.30;99.90
22436;DHT22;11385;50.822;4.324;2023-04-15T02:52:30;10.40;99.90
22436;DHT22;11385;50.822;4.324;2023-04-15T02:54:57;10.40;99.90
22436;DHT22;11385;50.822;4.324;2023-04-15T02:57:28;10.50;99.90
22436;DHT22;11385;50.822;4.324;2023-04-15T02:59:56;10.50;99.90
22436;DHT22;11385;50.822;4.324;2023-04-15T03:02:23;10.50;99.90
22436;DHT22;11385;50.822;4.324;2023-04-15T03:04:49;10.40;99.90
22436;DHT22;11385;50.822;4.324;2023-04-15T03:07:18;10.40;99.90
22436;DHT22;11385;50.822;4.324;2023-04-15T03:09:45;10.20;99.90
22436;DHT22;11385;50.822;4.324;2023-04-15T03:12:14;10.20;99.90
22436;DHT22;11385;50.822;4.324;2023-04-15T03:14:41;10.10;99.90
22436;DHT22;11385;50.822;4.324;2023-04-15T03:17:11;10.00;99.90
22436;DHT22;11385;50.822;4.324;2023-04-15T03:19:37;10.00;99.90
22436;DHT22;11385;50.822;4.324;2023-04-15T03:22:04;10.20;99.90
22436;DHT22;11385;50.822;4.324;2023-04-15T03:24:31;10.20;99.90
22436;DHT22;11385;50.822;4.324;2023-04-15T03:26:57;10.30;99.90
22436;DHT22;11385;50.822;4.324;2023-04-15T03:29:26;10.30;99.90
22436;DHT22;11385;50.822;4.324;2023-04-15T03:31:53;10.50;99.90
22436;DHT22;11385;50.822;4.324;2023-04-15T03:34:20;10.60;99.90
22436;DHT22;11385;50.822;4.324;2023-04-15T03:36:47;10.70;99.90
22436;DHT22;11385;50.822;4.324;2023-04-15T03:39:14;10.60;99.90
22436;DHT22;11385;50.822;4.324;2023-04-15T03:41:40;10.60;99.90
22436;DHT22;11385;50.822;4.324;2023-04-15T03:44:07;10.60;99.90
22436;DHT22;11385;50.822;4.324;2023-04-15T03:46:35;10.60;99.90
22436;DHT22;11385;50.822;4.324;2023-04-15T03:49:02;10.50;99.90
22436;DHT22;11385;50.822;4.324;2023-04-15T03:51:29;10.50;99.90
22436;DHT22;11385;50.822;4.324;2023-04-15T03:53:56;10.50;99.90
22436;DHT22;11385;50.822;4.324;2023-04-15T03:56:24;10.30;99.90
22436;DHT22;11385;50.822;4.324;2023-04-15T03:58:50;10.40;99.90
22436;DHT22;11385;50.822;4.324;2023-04-15T04:01:18;10.30;99.90
22436;DHT22;11385;50.822;4.324;2023-04-15T04:03:45;10.20;99.90
22436;DHT22;11385;50.822;4.324;2023-04-15T04:06:12;10.10;99.90
22436;DHT22;11385;50.822;4.324;2023-04-15T04:08:39;9.90;99.90
22436;DHT22;11385;50.822;4.324;2023-04-15T04:11:06;9.80;99.90
22436;DHT22;11385;50.822;4.324;2023-04-15T04:13:33;9.60;99.90
22436;DHT22;11385;50.822;4.324;2023-04-15T04:16:00;9.70;99.90
22436;DHT22;11385;50.822;4.324;2023-04-15T04:18:26;9.70;99.90
22436;DHT22;11385;50.822;4.324;2023-04-15T04:20:54;9.60;99.90
22436;DHT22;11385;50.822;4.324;2023-04-15T04:23:20;9.70;99.90
22436;DHT22;11385;50.822;4.324;2023-04-15T04:25:47;9.80;99.90
22436;DHT22;11385;50.822;4.324;2023-04-15T04:28:15;9.80;99.90
22436;DHT22;11385;50.822;4.324;2023-04-15T04:30:42;9.70;99.90
22436;DHT22;11385;50.822;4.324;2023-04-15T04:33:11;9.90;99.90
22436;DHT22;11385;50.822;4.324;2023-04-15T04:35:38;10.00;99.90
22436;DHT22;11385;50.822;4.324;2023-04-15T04:38:05;10.00;99.90
22436;DHT22;11385;50.822;4.324;2023-04-15T04:40:32;9.80;99.90
22436;DHT22;11385;50.822;4.324;2023-04-15T04:42:59;9.80;99.90
22436;DHT22;11385;50.822;4.324;2023-04-15T04:45:28;10.00;99.90
22436;DHT22;11385;50.822;4.324;2023-04-15T04:47:55;9.90;99.90
22436;DHT22;11385;50.822;4.324;2023-04-15T04:50:22;10.00;99.90
22436;DHT22;11385;50.822;4.324;2023-04-15T04:52:49;9.90;99.90
22436;DHT22;11385;50.822;4.324;2023-04-15T04:55:16;9.90;99.90
22436;DHT22;11385;50.822;4.324;2023-04-15T04:57:43;9.80;99.90
22436;DHT22;11385;50.822;4.324;2023-04-15T05:00:12;9.80;99.90
22436;DHT22;11385;50.822;4.324;2023-04-15T05:02:40;9.80;99.90
22436;DHT22;11385;50.822;4.324;2023-04-15T05:05:09;9.80;99.90
22436;DHT22;11385;50.822;4.324;2023-04-15T05:07:38;9.70;99.90
22436;DHT22;11385;50.822;4.324;2023-04-15T05:10:07;9.60;99.90
22436;DHT22;11385;50.822;4.324;2023-04-15T05:12:35;9.80;99.90
22436;DHT22;11385;50.822;4.324;2023-04-15T05:15:05;9.90;99.90
22436;DHT22;11385;50.822;4.324;2023-04-15T05:17:34;9.90;99.90
22436;DHT22;11385;50.822;4.324;2023-04-15T05:20:01;9.90;99.90
22436;DHT22;11385;50.822;4.324;2023-04-15T05:22:28;9.90;99.90
22436;DHT22;11385;50.822;4.324;2023-04-15T05:24:56;9.90;99.90
22436;DHT22;11385;50.822;4.324;2023-04-15T05:27:23;10.00;99.90
22436;DHT22;11385;50.822;4.324;2023-04-15T05:29:50;10.10;99.90
22436;DHT22;11385;50.822;4.324;2023-04-15T05:32:18;10.20;99.90
22436;DHT22;11385;50.822;4.324;2023-04-15T05:34:45;10.30;99.90
22436;DHT22;11385;50.822;4.324;2023-04-15T05:37:12;10.30;99.90
22436;DHT22;11385;50.822;4.324;2023-04-15T05:39:39;10.40;99.90
22436;DHT22;11385;50.822;4.324;2023-04-15T05:42:06;10.60;99.90
22436;DHT22;11385;50.822;4.324;2023-04-15T05:44:35;10.60;99.90
22436;DHT22;11385;50.822;4.324;2023-04-15T05:47:03;10.60;99.90
22436;DHT22;11385;50.822;4.324;2023-04-15T05:49:31;10.80;99.90
22436;DHT22;11385;50.822;4.324;2023-04-15T05:51:58;10.90;99.90
22436;DHT22;11385;50.822;4.324;2023-04-15T05:54:25;11.00;99.90
22436;DHT22;11385;50.822;4.324;2023-04-15T05:56:53;10.90;99.90
22436;DHT22;11385;50.822;4.324;2023-04-15T05:59:19;10.90;99.90
22436;DHT22;11385;50.822;4.324;2023-04-15T06:01:48;10.90;99.90
22436;DHT22;11385;50.822;4.324;2023-04-15T06:04:16;10.70;99.90
22436;DHT22;11385;50.822;4.324;2023-04-15T06:06:47;10.80;99.90
22436;DHT22;11385;50.822;4.324;2023-04-15T06:09:13;11.00;99.90
22436;DHT22;11385;50.822;4.324;2023-04-15T06:11:40;11.10;99.90
22436;DHT22;11385;50.822;4.324;2023-04-15T06:14:07;11.10;99.90
22436;DHT22;11385;50.822;4.324;2023-04-15T06:16:35;11.10;99.90
22436;DHT22;11385;50.822;4.324;2023-04-15T06:19:02;11.00;99.90
22436;DHT22;11385;50.822;4.324;2023-04-15T06:21:29;11.00;99.90
22436;DHT22;11385;50.822;4.324;2023-04-15T06:23:58;11.20;99.90
22436;DHT22;11385;50.822;4.324;2023-04-15T06:26:27;10.80;99.90
22436;DHT22;11385;50.822;4.324;2023-04-15T06:28:54;10.80;99.90
22436;DHT22;11385;50.822;4.324;2023-04-15T06:31:22;10.90;99.90
22436;DHT22;11385;50.822;4.324;2023-04-15T06:33:51;11.10;99.90
22436;DHT22;11385;50.822;4.324;2023-04-15T06:36:18;11.00;99.90
22436;DHT22;11385;50.822;4.324;2023-04-15T06:38:46;11.10;99.90
22436;DHT22;11385;50.822;4.324;2023-04-15T06:41:15;11.20;99.90
22436;DHT22;11385;50.822;4.324;2023-04-15T06:43:42;11.20;99.90
22436;DHT22;11385;50.822;4.324;2023-04-15T06:46:09;11.20;99.90
22436;DHT22;11385;50.822;4.324;2023-04-15T06:48:36;11.50;99.90
22436;DHT22;11385;50.822;4.324;2023-04-15T06:51:04;11.70;99.90
22436;DHT22;11385;50.822;4.324;2023-04-15T06:53:31;11.70;99.90
22436;DHT22;11385;50.822;4.324;2023-04-15T06:55:59;11.60;99.90
22436;DHT22;11385;50.822;4.324;2023-04-15T06:58:26;11.70;99.90
22436;DHT22;11385;50.822;4.324;2023-04-15T07:00:53;11.60;99.90
22436;DHT22;11385;50.822;4.324;2023-04-15T07:03:21;11.70;99.90
22436;DHT22;11385;50.822;4.324;2023-04-15T07:05:48;11.80;99.90
22436;DHT22;11385;50.822;4.324;2023-04-15T07:08:16;12.00;99.90
22436;DHT22;11385;50.822;4.324;2023-04-15T07:10:42;12.10;99.90
22436;DHT22;11385;50.822;4.324;2023-04-15T07:13:09;12.10;99.90
22436;DHT22;11385;50.822;4.324;2023-04-15T07:15:36;12.10;99.90
22436;DHT22;11385;50.822;4.324;2023-04-15T07:18:03;12.20;99.90
22436;DHT22;11385;50.822;4.324;2023-04-15T07:20:30;12.30;99.90
22436;DHT22;11385;50.822;4.324;2023-04-15T07:22:56;12.50;99.90
22436;DHT22;11385;50.822;4.324;2023-04-15T07:25:24;12.50;99.90
22436;DHT22;11385;50.822;4.324;2023-04-15T07:27:54;12.30;99.90
22436;DHT22;11385;50.822;4.324;2023-04-15T07:30:21;12.00;99.90
22436;DHT22;11385;50.822;4.324;2023-04-15T07:32:48;12.30;99.90
22436;DHT22;11385;50.822;4.324;2023-04-15T07:35:15;12.60;99.90
22436;DHT22;11385;50.822;4.324;2023-04-15T07:37:41;12.60;99.90
22436;DHT22;11385;50.822;4.324;2023-04-15T07:40:09;12.50;99.90
22436;DHT22;11385;50.822;4.324;2023-04-15T07:42:37;12.80;99.90
22436;DHT22;11385;50.822;4.324;2023-04-15T07:45:05;12.60;99.90
22436;DHT22;11385;50.822;4.324;2023-04-15T07:47:32;12.80;99.90
22436;DHT22;11385;50.822;4.324;2023-04-15T07:49:59;13.10;99.90
22436;DHT22;11385;50.822;4.324;2023-04-15T07:52:28;13.20;99.90
22436;DHT22;11385;50.822;4.324;2023-04-15T07:54:54;13.00;99.90
22436;DHT22;11385;50.822;4.324;2023-04-15T07:57:21;12.90;99.90
22436;DHT22;11385;50.822;4.324;2023-04-15T07:59:48;12.60;99.90
22436;DHT22;11385;50.822;4.324;2023-04-15T08:02:15;12.60;99.90
22436;DHT22;11385;50.822;4.324;2023-04-15T08:04:45;12.60;99.90
22436;DHT22;11385;50.822;4.324;2023-04-15T08:07:14;12.50;99.90
22436;DHT22;11385;50.822;4.324;2023-04-15T08:09:43;12.50;99.90
22436;DHT22;11385;50.822;4.324;2023-04-15T08:12:10;12.30;99.90
22436;DHT22;11385;50.822;4.324;2023-04-15T08:14:39;12.50;99.90
22436;DHT22;11385;50.822;4.324;2023-04-15T08:17:06;12.30;99.90
22436;DHT22;11385;50.822;4.324;2023-04-15T08:19:32;12.20;99.90
22436;DHT22;11385;50.822;4.324;2023-04-15T08:21:59;12.20;99.90
22436;DHT22;11385;50.822;4.324;2023-04-15T08:24:26;12.20;99.90
22436;DHT22;11385;50.822;4.324;2023-04-15T08:26:53;12.20;99.90
22436;DHT22;11385;50.822;4.324;2023-04-15T08:29:21;12.30;99.90
22436;DHT22;11385;50.822;4.324;2023-04-15T08:31:49;12.40;99.90
22436;DHT22;11385;50.822;4.324;2023-04-15T08:34:17;12.40;99.90
22436;DHT22;11385;50.822;4.324;2023-04-15T08:36:47;12.30;99.90
22436;DHT22;11385;50.822;4.324;2023-04-15T08:39:15;12.20;99.90
22436;DHT22;11385;50.822;4.324;2023-04-15T08:42:02;12.20;99.90
22436;DHT22;11385;50.822;4.324;2023-04-15T08:44:33;12.50;99.90
22436;DHT22;11385;50.822;4.324;2023-04-15T08:47:02;12.80;99.90
22436;DHT22;11385;50.822;4.324;2023-04-15T08:49:31;12.70;99.90
22436;DHT22;11385;50.822;4.324;2023-04-15T08:51:59;13.00;99.90
22436;DHT22;11385;50.822;4.324;2023-04-15T08:54:26;13.30;99.90
22436;DHT22;11385;50.822;4.324;2023-04-15T08:56:54;13.50;99.90
22436;DHT22;11385;50.822;4.324;2023-04-15T08:59:21;13.70;99.90
22436;DHT22;11385;50.822;4.324;2023-04-15T09:01:49;13.60;99.90
22436;DHT22;11385;50.822;4.324;2023-04-15T09:04:17;13.80;99.90
22436;DHT22;11385;50.822;4.324;2023-04-15T09:06:44;13.90;99.90
22436;DHT22;11385;50.822;4.324;2023-04-15T09:09:12;13.90;99.90
22436;DHT22;11385;50.822;4.324;2023-04-15T09:11:39;13.80;99.90
22436;DHT22;11385;50.822;4.324;2023-04-15T09:14:06;14.00;99.90
22436;DHT22;11385;50.822;4.324;2023-04-15T09:19:21;14.50;99.90
22436;DHT22;11385;50.822;4.324;2023-04-15T09:21:51;14.70;99.90
22436;DHT22;11385;50.822;4.324;2023-04-15T09:24:18;14.60;99.90
22436;DHT22;11385;50.822;4.324;2023-04-15T09:26:46;14.50;99.90
22436;DHT22;11385;50.822;4.324;2023-04-15T09:29:14;14.40;99.90
22436;DHT22;11385;50.822;4.324;2023-04-15T09:31:40;14.70;99.90
22436;DHT22;11385;50.822;4.324;2023-04-15T09:34:08;15.00;99.90
22436;DHT22;11385;50.822;4.324;2023-04-15T09:36:56;15.10;99.90
22436;DHT22;11385;50.822;4.324;2023-04-15T09:39:23;14.80;99.90
22436;DHT22;11385;50.822;4.324;2023-04-15T09:42:06;15.00;99.90
22436;DHT22;11385;50.822;4.324;2023-04-15T09:44:33;15.00;99.90
22436;DHT22;11385;50.822;4.324;2023-04-15T09:47:00;15.20;99.90
22436;DHT22;11385;50.822;4.324;2023-04-15T09:49:27;15.30;99.90
22436;DHT22;11385;50.822;4.324;2023-04-15T09:52:00;15.30;99.90
22436;DHT22;11385;50.822;4.324;2023-04-15T09:54:34;15.50;99.90
22436;DHT22;11385;50.822;4.324;2023-04-15T09:57:06;15.60;99.90
22436;DHT22;11385;50.822;4.324;2023-04-15T09:59:33;15.70;99.90
22436;DHT22;11385;50.822;4.324;2023-04-15T10:02:03;15.80;99.90
22436;DHT22;11385;50.822;4.324;2023-04-15T10:04:34;15.90;99.90
22436;DHT22;11385;50.822;4.324;2023-04-15T10:07:03;15.90;99.90
22436;DHT22;11385;50.822;4.324;2023-04-15T10:09:31;15.70;99.90
22436;DHT22;11385;50.822;4.324;2023-04-15T10:11:59;15.80;99.90
22436;DHT22;11385;50.822;4.324;2023-04-15T10:14:27;15.90;99.90
22436;DHT22;11385;50.822;4.324;2023-04-15T10:16:58;16.10;99.90
22436;DHT22;11385;50.822;4.324;2023-04-15T10:19:26;16.00;99.90
22436;DHT22;11385;50.822;4.324;2023-04-15T10:21:55;16.00;99.90
22436;DHT22;11385;50.822;4.324;2023-04-15T10:24:23;16.10;99.90
22436;DHT22;11385;50.822;4.324;2023-04-15T10:26:51;15.90;99.90
22436;DHT22;11385;50.822;4.324;2023-04-15T10:29:19;16.10;99.90
22436;DHT22;11385;50.822;4.324;2023-04-15T10:31:47;16.00;99.90
22436;DHT22;11385;50.822;4.324;2023-04-15T10:34:14;16.10;99.90
22436;DHT22;11385;50.822;4.324;2023-04-15T10:36:42;16.30;99.90
22436;DHT22;11385;50.822;4.324;2023-04-15T10:39:44;16.30;99.90
22436;DHT22;11385;50.822;4.324;2023-04-15T10:42:15;16.50;99.90
22436;DHT22;11385;50.822;4.324;2023-04-15T10:44:47;16.50;99.90
22436;DHT22;11385;50.822;4.324;2023-04-15T10:47:15;16.40;99.90
22436;DHT22;11385;50.822;4.324;2023-04-15T10:49:47;16.20;99.90
22436;DHT22;11385;50.822;4.324;2023-04-15T10:52:16;16.30;99.90
22436;DHT22;11385;50.822;4.324;2023-04-15T10:54:44;16.40;99.90
22436;DHT22;11385;50.822;4.324;2023-04-15T10:57:21;16.30;99.90
22436;DHT22;11385;50.822;4.324;2023-04-15T11:02:47;16.20;99.90
22436;DHT22;11385;50.822;4.324;2023-04-15T11:05:15;16.30;99.90
22436;DHT22;11385;50.822;4.324;2023-04-15T11:07:58;16.40;99.90
22436;DHT22;11385;50.822;4.324;2023-04-15T11:10:49;16.50;99.90
22436;DHT22;11385;50.822;4.324;2023-04-15T11:13:19;16.60;99.90
22436;DHT22;11385;50.822;4.324;2023-04-15T11:15:49;16.30;99.90
22436;DHT22;11385;50.822;4.324;2023-04-15T11:18:24;16.20;99.90
22436;DHT22;11385;50.822;4.324;2023-04-15T11:20:52;16.50;99.90
22436;DHT22;11385;50.822;4.324;2023-04-15T11:23:29;16.60;99.90
22436;DHT22;11385;50.822;4.324;2023-04-15T11:25:58;16.60;99.90
22436;DHT22;11385;50.822;4.324;2023-04-15T11:28:27;16.60;99.90
22436;DHT22;11385;50.822;4.324;2023-04-15T11:30:55;16.80;99.90
22436;DHT22;11385;50.822;4.324;2023-04-15T11:33:22;17.00;99.90
22436;DHT22;11385;50.822;4.324;2023-04-15T11:35:51;16.90;99.90
22436;DHT22;11385;50.822;4.324;2023-04-15T11:38:20;16.90;99.90
22436;DHT22;11385;50.822;4.324;2023-04-15T11:40:49;16.60;99.90
22436;DHT22;11385;50.822;4.324;2023-04-15T11:43:19;16.30;99.90
22436;DHT22;11385;50.822;4.324;2023-04-15T11:45:56;16.40;99.90
22436;DHT22;11385;50.822;4.324;2023-04-15T11:48:26;16.40;99.90
22436;DHT22;11385;50.822;4.324;2023-04-15T11:51:11;16.60;99.90
22436;DHT22;11385;50.822;4.324;2023-04-15T11:53:47;16.60;99.90
22436;DHT22;11385;50.822;4.324;2023-04-15T11:56:18;16.60;99.90
22436;DHT22;11385;50.822;4.324;2023-04-15T11:58:47;16.70;99.90
22436;DHT22;11385;50.822;4.324;2023-04-15T12:01:15;16.80;99.90
22436;DHT22;11385;50.822;4.324;2023-04-15T12:03:45;16.80;99.90
22436;DHT22;11385;50.822;4.324;2023-04-15T12:06:16;16.80;99.90
22436;DHT22;11385;50.822;4.324;2023-04-15T12:09:07;17.00;99.90
22436;DHT22;11385;50.822;4.324;2023-04-15T12:11:38;17.10;99.90
22436;DHT22;11385;50.822;4.324;2023-04-15T12:14:11;17.10;99.90
22436;DHT22;11385;50.822;4.324;2023-04-15T12:16:41;17.00;99.90
22436;DHT22;11385;50.822;4.324;2023-04-15T12:19:10;16.80;99.90
22436;DHT22;11385;50.822;4.324;2023-04-15T12:21:41;16.70;99.90
22436;DHT22;11385;50.822;4.324;2023-04-15T12:24:09;16.50;99.90
22436;DHT22;11385;50.822;4.324;2023-04-15T12:26:46;16.60;99.90
22436;DHT22;11385;50.822;4.324;2023-04-15T12:29:14;16.80;99.90
22436;DHT22;11385;50.822;4.324;2023-04-15T12:31:47;17.10;99.90
22436;DHT22;11385;50.822;4.324;2023-04-15T12:34:16;17.20;99.90
22436;DHT22;11385;50.822;4.324;2023-04-15T12:36:43;17.30;99.90
22436;DHT22;11385;50.822;4.324;2023-04-15T12:39:09;16.90;99.90
22436;DHT22;11385;50.822;4.324;2023-04-15T12:41:36;17.00;99.90
22436;DHT22;11385;50.822;4.324;2023-04-15T12:44:03;17.00;99.90
22436;DHT22;11385;50.822;4.324;2023-04-15T12:46:30;17.00;99.90
22436;DHT22;11385;50.822;4.324;2023-04-15T12:48:58;17.00;99.90
22436;DHT22;11385;50.822;4.324;2023-04-15T12:51:25;16.90;99.90
22436;DHT22;11385;50.822;4.324;2023-04-15T12:53:53;17.10;99.90
22436;DHT22;11385;50.822;4.324;2023-04-15T12:56:20;17.20;99.90
22436;DHT22;11385;50.822;4.324;2023-04-15T12:58:51;17.30;99.90
22436;DHT22;11385;50.822;4.324;2023-04-15T13:01:17;17.40;99.90
22436;DHT22;11385;50.822;4.324;2023-04-15T13:03:45;17.00;99.90
22436;DHT22;11385;50.822;4.324;2023-04-15T13:06:11;17.00;99.90
22436;DHT22;11385;50.822;4.324;2023-04-15T13:08:38;17.30;99.90
22436;DHT22;11385;50.822;4.324;2023-04-15T13:11:06;17.60;99.90
22436;DHT22;11385;50.822;4.324;2023-04-15T13:13:33;17.60;99.90
22436;DHT22;11385;50.822;4.324;2023-04-15T13:16:00;17.70;99.90
22436;DHT22;11385;50.822;4.324;2023-04-15T13:18:26;17.60;99.90
22436;DHT22;11385;50.822;4.324;2023-04-15T13:20:53;17.30;99.90
22436;DHT22;11385;50.822;4.324;2023-04-15T13:23:22;17.00;99.90
22436;DHT22;11385;50.822;4.324;2023-04-15T13:25:49;17.30;99.90
22436;DHT22;11385;50.822;4.324;2023-04-15T13:28:17;17.50;99.90
22436;DHT22;11385;50.822;4.324;2023-04-15T13:30:44;17.80;99.90
22436;DHT22;11385;50.822;4.324;2023-04-15T13:33:12;17.60;99.90
22436;DHT22;11385;50.822;4.324;2023-04-15T13:35:38;17.60;99.90
22436;DHT22;11385;50.822;4.324;2023-04-15T13:38:06;17.70;99.90
22436;DHT22;11385;50.822;4.324;2023-04-15T13:40:32;17.60;99.90
22436;DHT22;11385;50.822;4.324;2023-04-15T13:42:59;17.60;99.90
22436;DHT22;11385;50.822;4.324;2023-04-15T13:45:27;17.40;99.90
22436;DHT22;11385;50.822;4.324;2023-04-15T13:47:55;17.20;99.90
22436;DHT22;11385;50.822;4.324;2023-04-15T13:50:23;17.20;99.90
22436;DHT22;11385;50.822;4.324;2023-04-15T13:52:50;17.50;99.90
22436;DHT22;11385;50.822;4.324;2023-04-15T13:55:17;17.50;99.90
22436;DHT22;11385;50.822;4.324;2023-04-15T13:57:44;17.20;99.90
22436;DHT22;11385;50.822;4.324;2023-04-15T14:00:12;17.00;99.90
22436;DHT22;11385;50.822;4.324;2023-04-15T14:02:39;17.10;99.90
22436;DHT22;11385;50.822;4.324;2023-04-15T14:05:07;17.10;99.90
22436;DHT22;11385;50.822;4.324;2023-04-15T14:07:35;17.20;99.90
22436;DHT22;11385;50.822;4.324;2023-04-15T14:10:01;17.10;99.90
22436;DHT22;11385;50.822;4.324;2023-04-15T14:12:30;17.20;99.90
22436;DHT22;11385;50.822;4.324;2023-04-15T14:14:57;17.50;99.90
22436;DHT22;11385;50.822;4.324;2023-04-15T14:17:23;17.20;99.90
22436;DHT22;11385;50.822;4.324;2023-04-15T14:19:50;17.10;99.90
22436;DHT22;11385;50.822;4.324;2023-04-15T14:22:17;17.00;99.90
22436;DHT22;11385;50.822;4.324;2023-04-15T14:24:45;17.00;99.90
22436;DHT22;11385;50.822;4.324;2023-04-15T14:27:14;17.20;99.90
22436;DHT22;11385;50.822;4.324;2023-04-15T14:29:41;17.20;99.90
22436;DHT22;11385;50.822;4.324;2023-04-15T14:32:08;17.30;99.90
22436;DHT22;11385;50.822;4.324;2023-04-15T14:34:35;17.40;99.90
22436;DHT22;11385;50.822;4.324;2023-04-15T14:37:02;17.30;99.90
22436;DHT22;11385;50.822;4.324;2023-04-15T14:39:29;17.00;99.90
22436;DHT22;11385;50.822;4.324;2023-04-15T14:41:55;16.70;99.90
22436;DHT22;11385;50.822;4.324;2023-04-15T14:44:22;16.50;99.90
22436;DHT22;11385;50.822;4.324;2023-04-15T14:46:50;16.70;99.90
22436;DHT22;11385;50.822;4.324;2023-04-15T14:49:17;16.70;99.90
22436;DHT22;11385;50.822;4.324;2023-04-15T14:51:43;16.60;99.90
22436;DHT22;11385;50.822;4.324;2023-04-15T14:54:11;16.70;99.90
22436;DHT22;11385;50.822;4.324;2023-04-15T14:56:38;17.00;99.90
22436;DHT22;11385;50.822;4.324;2023-04-15T14:59:05;17.20;99.90
22436;DHT22;11385;50.822;4.324;2023-04-15T15:01:33;17.30;99.90
22436;DHT22;11385;50.822;4.324;2023-04-15T15:04:00;17.20;99.90
22436;DHT22;11385;50.822;4.324;2023-04-15T15:06:26;17.50;99.90
22436;DHT22;11385;50.822;4.324;2023-04-15T15:08:53;17.30;99.90
22436;DHT22;11385;50.822;4.324;2023-04-15T15:11:19;17.30;99.90
22436;DHT22;11385;50.822;4.324;2023-04-15T15:13:46;17.00;99.90
22436;DHT22;11385;50.822;4.324;2023-04-15T15:16:13;17.00;99.90
22436;DHT22;11385;50.822;4.324;2023-04-15T15:18:40;17.20;99.90
22436;DHT22;11385;50.822;4.324;2023-04-15T15:21:07;17.00;99.90
22436;DHT22;11385;50.822;4.324;2023-04-15T15:23:34;16.80;99.90
22436;DHT22;11385;50.822;4.324;2023-04-15T15:26:00;16.80;99.90
22436;DHT22;11385;50.822;4.324;2023-04-15T15:28:27;17.00;99.90
22436;DHT22;11385;50.822;4.324;2023-04-15T15:30:54;17.10;99.90
22436;DHT22;11385;50.822;4.324;2023-04-15T15:33:20;17.00;99.90
22436;DHT22;11385;50.822;4.324;2023-04-15T15:35:47;17.00;99.90
22436;DHT22;11385;50.822;4.324;2023-04-15T15:38:16;17.10;99.90
22436;DHT22;11385;50.822;4.324;2023-04-15T15:43:52;16.90;99.90
22436;DHT22;11385;50.822;4.324;2023-04-15T15:46:19;16.70;99.90
22436;DHT22;11385;50.822;4.324;2023-04-15T15:48:46;16.30;99.90